createdAt,value
2023-01-31T00:01:41.071Z,6.22
2023-01-31T00:04:11.423Z,5.43
2023-01-31T00:06:43.219Z,5.80
2023-01-31T00:09:11.891Z,5.28
2023-01-31T00:11:39.240Z,5.60
2023-01-31T00:14:07.140Z,5.45
2023-01-31T00:16:34.869Z,5.63
2023-01-31T00:19:01.640Z,6.10
2023-01-31T00:21:29.756Z,5.68
2023-01-31T00:23:58.327Z,5.72
2023-01-31T00:26:29.623Z,5.55
2023-01-31T00:28:57.647Z,6.20
2023-01-31T00:31:26.286Z,5.55
2023-01-31T00:33:54.093Z,5.38
2023-01-31T00:36:24.744Z,5.85
2023-01-31T00:38:53.025Z,5.93
2023-01-31T00:41:21.290Z,6.43
2023-01-31T00:43:48.081Z,5.85
2023-01-31T00:46:14.747Z,6.22
2023-01-31T00:48:41.353Z,5.60
2023-01-31T00:51:08.333Z,5.97
2023-01-31T00:53:35.498Z,5.47
2023-01-31T00:56:16.052Z,5.45
2023-01-31T00:58:43.063Z,5.72
2023-01-31T01:01:12.788Z,4.97
2023-01-31T01:03:40.477Z,5.40
2023-01-31T01:06:08.131Z,5.63
2023-01-31T01:08:36.399Z,5.88
2023-01-31T01:11:13.301Z,5.70
2023-01-31T01:13:40.626Z,5.50
2023-01-31T01:16:11.948Z,5.45
2023-01-31T01:18:38.787Z,6.28
2023-01-31T01:21:10.301Z,5.40
2023-01-31T01:23:38.401Z,5.03
2023-01-31T01:26:05.424Z,5.35
2023-01-31T01:28:35.458Z,5.75
2023-01-31T01:31:09.766Z,6.20
2023-01-31T01:33:36.822Z,5.15
2023-01-31T01:36:09.290Z,5.43
2023-01-31T01:38:37.165Z,5.47
2023-01-31T01:41:04.952Z,5.82
2023-01-31T01:43:55.348Z,5.07
2023-01-31T01:46:36.220Z,5.05
2023-01-31T01:49:32.813Z,6.35
2023-01-31T01:52:02.630Z,6.28
2023-01-31T01:54:36.496Z,5.50
2023-01-31T01:57:05.987Z,6.28
2023-01-31T01:59:50.411Z,6.07
2023-01-31T02:02:17.275Z,5.35
2023-01-31T02:04:47.179Z,6.70
2023-01-31T02:07:13.930Z,5.13
2023-01-31T02:09:52.175Z,5.53
2023-01-31T02:12:18.756Z,5.10
2023-01-31T02:14:47.383Z,5.80
2023-01-31T02:17:15.739Z,5.32
2023-01-31T02:19:48.194Z,5.57
2023-01-31T02:22:17.252Z,5.38
2023-01-31T02:25:07.511Z,4.88
2023-01-31T02:28:01.901Z,5.70
2023-01-31T02:30:45.418Z,5.72
2023-01-31T02:33:30.596Z,5.60
2023-01-31T02:36:02.457Z,5.72
2023-01-31T02:38:42.436Z,5.32
2023-01-31T02:41:24.104Z,4.95
2023-01-31T02:44:24.829Z,5.22
2023-01-31T02:46:56.755Z,4.95
2023-01-31T02:49:35.217Z,4.80
2023-01-31T02:52:17.089Z,4.72
2023-01-31T02:55:22.735Z,5.45
2023-01-31T02:57:51.627Z,4.32
2023-01-31T03:00:19.958Z,4.10
2023-01-31T03:02:46.671Z,4.55
2023-01-31T03:05:18.406Z,4.90
2023-01-31T03:07:52.778Z,4.60
2023-01-31T03:10:35.176Z,5.03
2023-01-31T03:13:29.625Z,5.00
2023-01-31T03:16:34.941Z,5.03
2023-01-31T03:19:13.659Z,5.40
2023-01-31T03:21:47.297Z,5.05
2023-01-31T03:24:17.285Z,5.85
2023-01-31T03:26:44.571Z,5.60
2023-01-31T03:29:14.896Z,5.45
2023-01-31T03:31:46.119Z,4.78
2023-01-31T03:34:14.672Z,4.93
2023-01-31T03:36:51.063Z,5.82
2023-01-31T03:39:17.738Z,5.25
2023-01-31T03:41:55.515Z,5.97
2023-01-31T03:44:40.994Z,5.15
2023-01-31T03:47:17.911Z,5.18
2023-01-31T03:49:46.056Z,5.63
2023-01-31T03:52:17.528Z,5.65
2023-01-31T03:54:50.857Z,4.65
2023-01-31T03:57:24.105Z,4.95
2023-01-31T03:59:54.385Z,5.32
2023-01-31T04:02:24.854Z,5.70
2023-01-31T04:04:56.920Z,5.30
2023-01-31T04:07:24.011Z,5.53
2023-01-31T04:09:50.694Z,5.50
2023-01-31T04:12:17.167Z,5.28
2023-01-31T04:14:43.728Z,5.35
2023-01-31T04:17:10.190Z,5.93
2023-01-31T04:19:37.691Z,6.30
2023-01-31T04:22:04.180Z,6.38
2023-01-31T04:24:30.713Z,5.47
2023-01-31T04:26:57.304Z,5.68
2023-01-31T04:29:23.843Z,5.78
2023-01-31T04:31:50.465Z,6.13
2023-01-31T04:34:16.999Z,6.07
2023-01-31T04:36:43.502Z,5.93
2023-01-31T04:39:11.187Z,4.97
2023-01-31T04:41:37.812Z,4.88
2023-01-31T04:44:04.388Z,5.72
2023-01-31T04:46:31.133Z,5.43
2023-01-31T04:48:57.614Z,4.80
2023-01-31T04:51:24.047Z,5.05
2023-01-31T04:53:50.524Z,5.35
2023-01-31T04:56:17.051Z,5.55
2023-01-31T04:58:44.163Z,5.60
2023-01-31T05:01:10.769Z,4.88
2023-01-31T05:03:37.360Z,5.97
2023-01-31T05:06:04.090Z,5.78
2023-01-31T05:08:30.557Z,5.70
2023-01-31T05:10:59.066Z,6.63
2023-01-31T05:13:25.713Z,5.75
2023-01-31T05:15:52.269Z,6.43
2023-01-31T05:18:18.802Z,6.68
2023-01-31T05:20:45.331Z,7.20
2023-01-31T05:23:11.824Z,6.90
2023-01-31T05:25:38.384Z,6.95
2023-01-31T05:28:05.439Z,6.72
2023-01-31T05:30:32.497Z,7.25
2023-01-31T05:32:59.225Z,8.45
2023-01-31T05:35:25.760Z,8.70
2023-01-31T05:37:54.550Z,9.45
2023-01-31T05:40:22.170Z,8.95
2023-01-31T05:43:00.976Z,8.90
2023-01-31T05:45:28.437Z,10.48
2023-01-31T05:47:55.230Z,9.77
2023-01-31T05:50:22.251Z,10.82
2023-01-31T05:52:59.589Z,10.90
2023-01-31T05:55:27.853Z,11.52
2023-01-31T05:57:54.611Z,11.10
2023-01-31T06:00:22.400Z,12.30
2023-01-31T06:02:49.541Z,13.15
2023-01-31T06:05:16.532Z,12.70
2023-01-31T06:07:43.126Z,13.52
2023-01-31T06:10:11.698Z,13.00
2023-01-31T06:12:38.194Z,14.80
2023-01-31T06:15:05.040Z,13.55
2023-01-31T06:17:31.615Z,13.88
2023-01-31T06:19:58.283Z,14.55
2023-01-31T06:22:24.782Z,14.20
2023-01-31T06:24:51.305Z,14.32
2023-01-31T06:27:17.802Z,15.27
2023-01-31T06:29:44.364Z,14.85
2023-01-31T06:32:10.853Z,13.93
2023-01-31T06:34:37.799Z,14.13
2023-01-31T06:37:04.264Z,14.52
2023-01-31T06:39:30.724Z,13.82
2023-01-31T06:41:57.672Z,13.90
2023-01-31T06:44:25.957Z,13.30
2023-01-31T06:46:53.156Z,13.43
2023-01-31T06:49:19.656Z,12.95
2023-01-31T06:51:46.128Z,13.18
2023-01-31T06:54:12.580Z,14.18
2023-01-31T06:56:39.021Z,13.40
2023-01-31T06:59:05.470Z,14.02
2023-01-31T07:01:31.920Z,14.15
2023-01-31T07:03:58.504Z,14.55
2023-01-31T07:06:25.069Z,12.80
2023-01-31T07:08:52.525Z,14.00
2023-01-31T07:11:18.982Z,14.35
2023-01-31T07:13:47.818Z,13.13
2023-01-31T07:16:16.932Z,13.40
2023-01-31T07:18:43.545Z,12.90
2023-01-31T07:21:10.836Z,12.73
2023-01-31T07:23:37.544Z,12.75
2023-01-31T07:26:05.785Z,11.32
2023-01-31T07:28:32.323Z,11.30
2023-01-31T07:31:11.708Z,10.93
2023-01-31T07:33:39.659Z,12.23
2023-01-31T07:36:07.937Z,12.40
2023-01-31T07:38:35.240Z,11.68
2023-01-31T07:41:03.380Z,11.63
2023-01-31T07:43:31.084Z,11.93
2023-01-31T07:45:57.901Z,11.65
2023-01-31T07:48:24.730Z,11.05
2023-01-31T07:51:00.161Z,10.52
2023-01-31T07:53:28.635Z,11.23
2023-01-31T07:55:55.547Z,11.18
2023-01-31T07:58:22.137Z,11.48
2023-01-31T08:01:07.480Z,11.60
2023-01-31T08:03:34.215Z,10.95
2023-01-31T08:06:12.056Z,12.20
2023-01-31T08:08:40.515Z,11.93
2023-01-31T08:11:07.458Z,11.02
2023-01-31T08:13:35.531Z,10.48
2023-01-31T08:16:06.104Z,11.35
2023-01-31T08:18:33.423Z,11.20
2023-01-31T08:21:00.033Z,10.70
2023-01-31T08:23:30.997Z,11.05
2023-01-31T08:26:30.556Z,10.38
2023-01-31T08:28:57.502Z,9.93
2023-01-31T08:31:26.514Z,9.35
2023-01-31T08:33:54.107Z,8.80
2023-01-31T08:36:23.588Z,7.95
2023-01-31T08:38:51.013Z,9.05
2023-01-31T08:41:20.335Z,7.30
2023-01-31T08:43:58.221Z,6.90
2023-01-31T08:46:30.770Z,6.78
2023-01-31T08:48:58.102Z,8.25
2023-01-31T08:51:25.046Z,7.82
2023-01-31T08:53:51.549Z,7.30
2023-01-31T08:56:19.450Z,7.13
2023-01-31T08:58:46.006Z,8.18
2023-01-31T09:01:17.899Z,7.90
2023-01-31T09:03:45.966Z,7.25
2023-01-31T09:06:15.765Z,7.45
2023-01-31T09:08:42.447Z,7.70
2023-01-31T09:11:09.299Z,7.75
2023-01-31T09:13:36.129Z,8.80
2023-01-31T09:16:07.767Z,8.63
2023-01-31T09:18:36.094Z,8.48
2023-01-31T09:21:05.897Z,8.95
2023-01-31T09:23:32.594Z,9.13
2023-01-31T09:25:59.108Z,10.73
2023-01-31T09:28:26.099Z,11.40
2023-01-31T09:30:53.614Z,10.77
2023-01-31T09:33:21.718Z,11.55
2023-01-31T09:35:59.150Z,11.77
2023-01-31T09:38:26.391Z,12.55
2023-01-31T09:40:56.199Z,11.40
2023-01-31T09:43:27.665Z,12.82
2023-01-31T09:45:59.035Z,13.60
2023-01-31T09:48:31.181Z,12.82
2023-01-31T09:50:59.243Z,12.73
2023-01-31T09:53:32.812Z,12.82
2023-01-31T09:56:14.378Z,10.82
2023-01-31T09:58:52.737Z,11.38
2023-01-31T10:01:53.435Z,10.43
2023-01-31T10:04:38.120Z,11.02
2023-01-31T10:07:26.114Z,8.77
2023-01-31T10:10:00.296Z,10.63
2023-01-31T10:12:42.726Z,10.60
2023-01-31T10:15:35.131Z,10.13
2023-01-31T10:18:10.670Z,9.65
2023-01-31T10:20:46.332Z,10.57
2023-01-31T10:23:21.794Z,10.27
2023-01-31T10:26:00.315Z,9.95
2023-01-31T10:28:43.150Z,8.80
2023-01-31T10:31:37.568Z,10.13
2023-01-31T10:34:17.499Z,9.27
2023-01-31T10:37:01.628Z,9.50
2023-01-31T10:39:34.180Z,9.38
2023-01-31T10:42:13.019Z,9.20
2023-01-31T10:44:54.708Z,8.15
2023-01-31T10:47:28.688Z,8.40
2023-01-31T10:49:55.767Z,8.57
2023-01-31T10:52:34.457Z,8.50
2023-01-31T10:55:26.024Z,8.70
2023-01-31T10:57:53.238Z,8.18
2023-01-31T11:00:23.913Z,8.27
2023-01-31T11:02:50.545Z,8.65
2023-01-31T11:05:22.005Z,8.20
2023-01-31T11:07:50.411Z,7.80
2023-01-31T11:10:24.193Z,7.97
2023-01-31T11:13:01.853Z,7.63
2023-01-31T11:15:35.454Z,8.85
2023-01-31T11:18:02.508Z,7.90
2023-01-31T11:20:32.386Z,7.55
2023-01-31T11:23:01.199Z,7.53
2023-01-31T11:25:30.729Z,7.28
2023-01-31T11:28:00.470Z,7.50
2023-01-31T11:30:33.156Z,8.32
2023-01-31T11:32:59.663Z,9.82
2023-01-31T11:35:36.644Z,8.55
2023-01-31T11:38:12.031Z,7.70
2023-01-31T11:40:40.649Z,7.63
2023-01-31T11:43:24.955Z,8.07
2023-01-31T11:46:03.137Z,7.70
2023-01-31T11:48:42.229Z,7.18
2023-01-31T11:51:10.704Z,7.45
2023-01-31T11:53:43.114Z,7.57
2023-01-31T11:56:22.709Z,6.70
2023-01-31T11:58:53.997Z,7.38
2023-01-31T12:01:22.956Z,7.35
2023-01-31T12:04:02.442Z,6.90
2023-01-31T12:06:40.256Z,6.72
2023-01-31T12:09:27.842Z,6.72
2023-01-31T12:11:59.054Z,7.20
2023-01-31T12:14:39.485Z,7.20
2023-01-31T12:17:13.896Z,6.40
2023-01-31T12:20:25.195Z,6.50
2023-01-31T12:23:29.367Z,6.47
2023-01-31T12:26:15.446Z,6.18
2023-01-31T12:28:59.121Z,6.43
2023-01-31T12:34:07.671Z,4.07
2023-01-31T12:36:42.633Z,3.97
2023-01-31T12:39:24.080Z,8.70
2023-01-31T12:41:59.466Z,3.30
2023-01-31T12:44:25.920Z,3.47
2023-01-31T12:47:10.057Z,4.05
2023-01-31T12:49:52.748Z,3.85
2023-01-31T12:52:37.747Z,3.50
2023-01-31T12:55:10.204Z,3.65
2023-01-31T12:57:49.990Z,3.20
2023-01-31T13:00:19.220Z,3.47
2023-01-31T13:02:54.582Z,3.58
2023-01-31T13:05:46.902Z,4.72
2023-01-31T13:08:18.641Z,4.15
2023-01-31T13:10:56.473Z,3.35
2023-01-31T13:13:27.744Z,3.70
2023-01-31T13:16:04.590Z,3.40
2023-01-31T13:18:35.112Z,3.75
2023-01-31T13:21:07.377Z,3.67
2023-01-31T13:23:42.512Z,3.30
2023-01-31T13:26:17.077Z,3.30
2023-01-31T13:29:07.732Z,3.10
2023-01-31T13:31:40.570Z,3.03
2023-01-31T13:34:17.289Z,3.50
2023-01-31T13:36:53.977Z,4.05
2023-01-31T13:39:25.420Z,3.78
2023-01-31T13:41:52.466Z,3.72
2023-01-31T13:44:20.875Z,11.15
2023-01-31T13:47:01.392Z,15.38
2023-01-31T13:50:03.657Z,16.77
2023-01-31T13:52:51.527Z,19.33
2023-01-31T13:55:27.677Z,3.78
2023-01-31T13:58:25.397Z,3.13
2023-01-31T14:01:02.797Z,2.75
2023-01-31T14:03:29.432Z,2.83
2023-01-31T14:06:01.200Z,3.67
2023-01-31T14:08:28.893Z,2.65
2023-01-31T14:10:57.441Z,2.58
2023-01-31T14:13:31.692Z,2.55
2023-01-31T14:15:58.877Z,2.92
2023-01-31T14:18:45.348Z,2.92
2023-01-31T14:21:29.908Z,2.85
2023-01-31T14:24:01.617Z,2.50
2023-01-31T14:26:30.986Z,2.67
2023-01-31T14:28:57.679Z,2.78
2023-01-31T14:31:26.552Z,2.45
2023-01-31T14:33:57.391Z,2.60
2023-01-31T14:36:49.599Z,2.33
2023-01-31T14:39:42.113Z,2.72
2023-01-31T14:42:20.933Z,2.78
2023-01-31T14:45:04.399Z,2.83
2023-01-31T14:47:37.802Z,2.08
2023-01-31T14:50:49.969Z,2.78
2023-01-31T14:53:25.383Z,3.22
2023-01-31T14:56:08.458Z,2.45
2023-01-31T14:58:36.145Z,2.70
2023-01-31T15:01:07.482Z,2.25
2023-01-31T15:03:48.321Z,2.90
2023-01-31T15:06:37.577Z,2.90
2023-01-31T15:09:16.246Z,2.63
2023-01-31T15:11:44.923Z,2.45
2023-01-31T15:14:35.651Z,2.95
2023-01-31T15:17:40.461Z,2.60
2023-01-31T15:20:23.725Z,2.35
2023-01-31T15:22:53.996Z,2.40
2023-01-31T15:25:34.802Z,2.45
2023-01-31T15:28:02.939Z,2.17
2023-01-31T15:30:35.434Z,2.72
2023-01-31T15:33:29.080Z,2.90
2023-01-31T15:36:05.353Z,2.30
2023-01-31T15:38:41.410Z,2.60
2023-01-31T15:41:20.989Z,2.40
2023-01-31T15:43:48.453Z,2.83
2023-01-31T15:46:22.319Z,2.67
2023-01-31T15:48:49.490Z,2.60
2023-01-31T15:51:18.389Z,2.80
2023-01-31T15:53:45.093Z,2.90
2023-01-31T15:56:24.198Z,2.47
2023-01-31T15:58:54.251Z,2.50
2023-01-31T16:01:21.253Z,3.05
2023-01-31T16:03:56.660Z,2.25
2023-01-31T16:06:27.520Z,2.75
2023-01-31T16:09:04.305Z,2.70
2023-01-31T16:11:33.824Z,2.50
2023-01-31T16:14:03.667Z,3.35
2023-01-31T16:16:31.374Z,3.30
2023-01-31T16:18:59.714Z,2.67
2023-01-31T16:21:30.962Z,2.70
2023-01-31T16:23:59.945Z,2.75
2023-01-31T16:26:32.417Z,2.90
2023-01-31T16:29:02.468Z,2.92
2023-01-31T16:31:34.134Z,3.67
2023-01-31T16:34:04.774Z,3.08
2023-01-31T16:36:34.708Z,2.50
2023-01-31T16:39:06.073Z,3.20
2023-01-31T16:41:47.853Z,2.92
2023-01-31T16:44:18.463Z,3.20
2023-01-31T16:46:47.768Z,3.42
2023-01-31T16:49:28.699Z,2.67
2023-01-31T16:52:16.308Z,3.17
2023-01-31T16:54:51.777Z,2.50
2023-01-31T16:57:38.166Z,2.65
2023-01-31T17:00:27.534Z,2.33
2023-01-31T17:02:56.548Z,2.70
2023-01-31T17:05:49.440Z,2.85
2023-01-31T17:08:18.681Z,2.55
2023-01-31T17:10:47.917Z,2.78
2023-01-31T17:13:22.231Z,2.40
2023-01-31T17:15:49.455Z,3.15
2023-01-31T17:18:16.158Z,2.30
2023-01-31T17:20:46.458Z,3.78
2023-01-31T17:23:13.858Z,3.38
2023-01-31T17:25:42.731Z,2.63
2023-01-31T17:28:10.789Z,2.75
2023-01-31T17:30:42.774Z,2.50
2023-01-31T17:33:13.522Z,2.85
2023-01-31T17:35:42.902Z,4.13
2023-01-31T17:38:09.390Z,4.35
2023-01-31T17:40:39.617Z,4.68
2023-01-31T17:43:06.531Z,4.78
2023-01-31T17:45:33.287Z,3.10
2023-01-31T17:47:59.839Z,3.67
2023-01-31T17:50:28.537Z,3.35
2023-01-31T17:52:56.034Z,3.30
2023-01-31T17:55:24.404Z,2.92
2023-01-31T17:57:51.139Z,3.20
2023-01-31T18:00:19.207Z,2.95
2023-01-31T18:02:46.099Z,3.20
2023-01-31T18:05:18.641Z,2.75
2023-01-31T18:07:49.397Z,2.92
2023-01-31T18:10:16.260Z,4.30
2023-01-31T18:12:42.751Z,2.58
2023-01-31T18:15:10.042Z,3.00
2023-01-31T18:17:36.576Z,3.17
2023-01-31T18:20:03.737Z,3.42
2023-01-31T18:22:30.287Z,3.03
2023-01-31T18:24:56.810Z,3.33
2023-01-31T18:27:23.314Z,3.60
2023-01-31T18:29:49.780Z,3.70
2023-01-31T18:32:17.965Z,3.08
2023-01-31T18:34:45.731Z,3.50
2023-01-31T18:37:19.252Z,3.83
2023-01-31T18:42:19.707Z,3.50
2023-01-31T18:44:47.042Z,3.53
2023-01-31T18:47:15.090Z,3.38
2023-01-31T18:49:41.641Z,3.33
2023-01-31T18:52:08.884Z,3.95
2023-01-31T18:54:35.513Z,3.53
2023-01-31T18:57:02.121Z,3.58
2023-01-31T18:59:28.625Z,4.15
2023-01-31T19:01:55.189Z,4.30
2023-01-31T19:04:21.740Z,3.80
2023-01-31T19:06:51.378Z,4.00
2023-01-31T19:09:18.238Z,3.85
2023-01-31T19:11:45.214Z,4.07
2023-01-31T19:14:13.695Z,5.20
2023-01-31T19:16:41.897Z,4.90
2023-01-31T19:19:09.771Z,5.38
2023-01-31T19:21:37.739Z,4.55
2023-01-31T19:24:07.703Z,5.07
2023-01-31T19:26:35.204Z,4.30
2023-01-31T19:29:03.443Z,5.13
2023-01-31T19:31:31.382Z,4.90
2023-01-31T19:34:03.858Z,4.72
2023-01-31T19:36:33.052Z,5.28
2023-01-31T19:39:01.070Z,4.38
2023-01-31T19:41:28.758Z,5.20
2023-01-31T19:43:57.249Z,4.47
2023-01-31T19:46:27.093Z,4.20
2023-01-31T19:48:55.311Z,4.53
2023-01-31T19:51:23.077Z,4.40
2023-01-31T19:53:49.962Z,4.25
2023-01-31T19:56:16.755Z,4.70
2023-01-31T19:58:43.572Z,4.20
2023-01-31T20:01:13.210Z,4.45
2023-01-31T20:03:40.046Z,4.65
2023-01-31T20:06:11.844Z,5.50
2023-01-31T20:08:38.896Z,4.93
2023-01-31T20:11:07.627Z,4.90
2023-01-31T20:13:38.039Z,4.45
2023-01-31T20:16:09.807Z,5.28
2023-01-31T20:18:37.970Z,4.78
2023-01-31T20:21:04.981Z,4.85
2023-01-31T20:23:32.015Z,3.95
2023-01-31T20:25:58.915Z,4.55
2023-01-31T20:28:26.790Z,4.43
2023-01-31T20:30:54.143Z,4.93
2023-01-31T20:33:20.916Z,4.20
2023-01-31T20:35:47.485Z,4.25
2023-01-31T20:38:17.192Z,4.10
2023-01-31T20:40:50.306Z,3.90
2023-01-31T20:43:17.813Z,4.60
2023-01-31T20:45:44.566Z,4.57
2023-01-31T20:48:11.657Z,5.15
2023-01-31T20:50:38.414Z,5.10
2023-01-31T20:53:04.908Z,4.78
2023-01-31T20:55:31.471Z,4.63
2023-01-31T20:57:58.545Z,3.88
2023-01-31T21:00:25.664Z,4.40
2023-01-31T21:02:52.239Z,3.70
2023-01-31T21:05:18.839Z,3.05
2023-01-31T21:07:45.482Z,3.97
2023-01-31T21:10:13.060Z,3.90
2023-01-31T21:12:39.663Z,3.90
2023-01-31T21:15:06.670Z,3.80
2023-01-31T21:17:39.998Z,3.90
2023-01-31T21:22:34.876Z,3.85
2023-01-31T21:25:01.746Z,3.90
2023-01-31T21:27:28.351Z,3.67
2023-01-31T21:29:54.898Z,4.07
2023-01-31T21:32:21.484Z,3.58
2023-01-31T21:34:48.051Z,4.05
2023-01-31T21:37:14.626Z,3.70
2023-01-31T21:39:41.133Z,3.40
2023-01-31T21:42:15.836Z,3.85
2023-01-31T21:44:47.449Z,3.60
2023-01-31T21:47:15.750Z,3.10
2023-01-31T21:49:42.670Z,3.10
2023-01-31T21:52:10.025Z,3.05
2023-01-31T21:54:37.304Z,3.47
2023-01-31T21:57:04.078Z,3.10
2023-01-31T21:59:32.342Z,3.25
2023-01-31T22:01:59.580Z,3.47
2023-01-31T22:04:26.175Z,3.17
2023-01-31T22:06:53.522Z,3.28
2023-01-31T22:09:19.987Z,3.03
2023-01-31T22:11:47.599Z,3.67
2023-01-31T22:14:16.448Z,2.85
2023-01-31T22:16:43.727Z,3.15
2023-01-31T22:19:12.309Z,2.60
2023-01-31T22:21:40.352Z,3.08
2023-01-31T22:24:08.809Z,2.88
2023-01-31T22:26:38.510Z,3.25
2023-01-31T22:29:07.413Z,3.00
2023-01-31T22:31:34.387Z,3.30
2023-01-31T22:34:01.551Z,3.05
2023-01-31T22:36:28.275Z,3.00
2023-01-31T22:38:54.894Z,3.10
2023-01-31T22:41:21.827Z,3.33
2023-01-31T22:43:51.171Z,3.53
2023-01-31T22:46:20.798Z,2.78
2023-01-31T22:48:51.013Z,2.92
2023-01-31T22:51:20.452Z,3.10
2023-01-31T22:53:47.959Z,2.60
2023-01-31T22:56:18.102Z,2.80
2023-01-31T22:58:44.852Z,2.95
2023-01-31T23:01:22.410Z,3.10
2023-01-31T23:03:49.399Z,3.00
2023-01-31T23:06:17.785Z,4.00
2023-01-31T23:08:45.111Z,3.65
2023-01-31T23:11:13.979Z,3.15
2023-01-31T23:13:41.818Z,3.60
2023-01-31T23:16:10.617Z,3.58
2023-01-31T23:18:37.072Z,3.10
2023-01-31T23:21:13.119Z,3.35
2023-01-31T23:23:39.797Z,3.25
2023-01-31T23:26:06.960Z,3.42
2023-01-31T23:28:33.527Z,3.45
2023-01-31T23:31:00.449Z,3.65
2023-01-31T23:33:27.049Z,3.85
2023-01-31T23:35:53.608Z,3.00
2023-01-31T23:38:20.422Z,3.30
2023-01-31T23:40:52.119Z,3.30
2023-01-31T23:43:19.012Z,3.05
2023-01-31T23:45:45.466Z,3.00
2023-01-31T23:48:12.072Z,3.45
2023-01-31T23:50:38.973Z,3.33
2023-01-31T23:53:05.474Z,3.55
2023-01-31T23:55:31.936Z,3.20
2023-01-31T23:57:58.463Z,3.42
